sensor_id;sensor_type;location;lat;lon;timestamp;temperature;humidity
14737;DHT22;7459;53.590;10.062;2022-10-26T00:00:03;13.00;99.90
14737;DHT22;7459;53.590;10.062;2022-10-26T00:02:30;13.00;99.90
14737;DHT22;7459;53.590;10.062;2022-10-26T00:04:55;12.90;99.90
14737;DHT22;7459;53.590;10.062;2022-10-26T00:07:21;12.80;99.90
14737;DHT22;7459;53.590;10.062;2022-10-26T00:09:47;12.80;99.90
14737;DHT22;7459;53.590;10.062;2022-10-26T00:12:12;12.80;99.90
14737;DHT22;7459;53.590;10.062;2022-10-26T00:14:38;12.80;99.90
14737;DHT22;7459;53.590;10.062;2022-10-26T00:17:04;12.80;99.90
14737;DHT22;7459;53.590;10.062;2022-10-26T00:19:32;12.80;99.90
14737;DHT22;7459;53.590;10.062;2022-10-26T00:21:58;12.80;99.90
14737;DHT22;7459;53.590;10.062;2022-10-26T00:24:24;12.80;99.90
14737;DHT22;7459;53.590;10.062;2022-10-26T00:26:49;12.80;99.90
14737;DHT22;7459;53.590;10.062;2022-10-26T00:29:15;12.80;99.90
14737;DHT22;7459;53.590;10.062;2022-10-26T00:31:42;12.80;99.90
14737;DHT22;7459;53.590;10.062;2022-10-26T00:34:09;12.70;99.90
14737;DHT22;7459;53.590;10.062;2022-10-26T00:36:36;12.70;99.90
14737;DHT22;7459;53.590;10.062;2022-10-26T00:39:02;12.70;99.90
14737;DHT22;7459;53.590;10.062;2022-10-26T00:41:31;12.70;99.90
14737;DHT22;7459;53.590;10.062;2022-10-26T00:43:58;12.70;99.90
14737;DHT22;7459;53.590;10.062;2022-10-26T00:46:34;12.60;99.90
14737;DHT22;7459;53.590;10.062;2022-10-26T00:49:12;12.60;99.90
14737;DHT22;7459;53.590;10.062;2022-10-26T00:51:52;12.60;99.90
14737;DHT22;7459;53.590;10.062;2022-10-26T00:54:18;12.60;99.90
14737;DHT22;7459;53.590;10.062;2022-10-26T00:56:47;12.60;99.90
14737;DHT22;7459;53.590;10.062;2022-10-26T00:59:15;12.60;99.90
14737;DHT22;7459;53.590;10.062;2022-10-26T01:01:43;12.50;99.90
14737;DHT22;7459;53.590;10.062;2022-10-26T01:04:12;12.50;99.90
14737;DHT22;7459;53.590;10.062;2022-10-26T01:06:39;12.50;99.90
14737;DHT22;7459;53.590;10.062;2022-10-26T01:09:06;12.50;99.90
14737;DHT22;7459;53.590;10.062;2022-10-26T01:11:31;12.50;99.90
14737;DHT22;7459;53.590;10.062;2022-10-26T01:13:58;12.50;99.90
14737;DHT22;7459;53.590;10.062;2022-10-26T01:19:37;12.40;99.90
14737;DHT22;7459;53.590;10.062;2022-10-26T01:22:37;12.50;99.90
14737;DHT22;7459;53.590;10.062;2022-10-26T01:27:49;12.40;99.90
14737;DHT22;7459;53.590;10.062;2022-10-26T01:33:19;12.40;99.90
14737;DHT22;7459;53.590;10.062;2022-10-26T01:36:03;12.40;99.90
14737;DHT22;7459;53.590;10.062;2022-10-26T01:41:57;12.40;99.90
14737;DHT22;7459;53.590;10.062;2022-10-26T01:47:22;12.30;99.90
14737;DHT22;7459;53.590;10.062;2022-10-26T01:49:52;12.30;99.90
14737;DHT22;7459;53.590;10.062;2022-10-26T01:52:20;12.30;99.90
14737;DHT22;7459;53.590;10.062;2022-10-26T01:54:46;12.30;99.90
14737;DHT22;7459;53.590;10.062;2022-10-26T01:57:15;12.30;99.90
14737;DHT22;7459;53.590;10.062;2022-10-26T02:00:16;12.30;99.90
14737;DHT22;7459;53.590;10.062;2022-10-26T02:05:39;12.30;99.90
14737;DHT22;7459;53.590;10.062;2022-10-26T02:08:22;12.30;99.90
14737;DHT22;7459;53.590;10.062;2022-10-26T02:11:18;12.30;99.90
14737;DHT22;7459;53.590;10.062;2022-10-26T02:19:24;12.10;99.90
14737;DHT22;7459;53.590;10.062;2022-10-26T02:22:13;12.10;99.90
14737;DHT22;7459;53.590;10.062;2022-10-26T02:24:42;12.10;99.90
14737;DHT22;7459;53.590;10.062;2022-10-26T02:27:14;12.00;99.90
14737;DHT22;7459;53.590;10.062;2022-10-26T02:29:43;12.00;99.90
14737;DHT22;7459;53.590;10.062;2022-10-26T02:32:09;12.00;99.90
14737;DHT22;7459;53.590;10.062;2022-10-26T02:34:37;12.00;99.90
14737;DHT22;7459;53.590;10.062;2022-10-26T02:37:04;12.00;99.90
14737;DHT22;7459;53.590;10.062;2022-10-26T02:39:31;12.00;99.90
14737;DHT22;7459;53.590;10.062;2022-10-26T02:42:02;12.00;99.90
14737;DHT22;7459;53.590;10.062;2022-10-26T02:44:36;12.00;99.90
14737;DHT22;7459;53.590;10.062;2022-10-26T02:47:07;12.00;99.90
14737;DHT22;7459;53.590;10.062;2022-10-26T02:49:33;12.00;99.90
14737;DHT22;7459;53.590;10.062;2022-10-26T02:52:08;11.90;99.90
14737;DHT22;7459;53.590;10.062;2022-10-26T02:54:50;11.90;99.90
14737;DHT22;7459;53.590;10.062;2022-10-26T02:57:42;11.90;99.90
14737;DHT22;7459;53.590;10.062;2022-10-26T03:00:13;11.90;99.90
14737;DHT22;7459;53.590;10.062;2022-10-26T03:02:45;11.90;99.90
14737;DHT22;7459;53.590;10.062;2022-10-26T03:05:27;11.90;99.90
14737;DHT22;7459;53.590;10.062;2022-10-26T03:07:55;11.90;99.90
14737;DHT22;7459;53.590;10.062;2022-10-26T03:10:22;11.90;99.90
14737;DHT22;7459;53.590;10.062;2022-10-26T03:12:48;11.90;99.90
14737;DHT22;7459;53.590;10.062;2022-10-26T03:15:13;11.90;99.90
14737;DHT22;7459;53.590;10.062;2022-10-26T03:17:40;11.80;99.90
14737;DHT22;7459;53.590;10.062;2022-10-26T03:20:06;11.80;99.90
14737;DHT22;7459;53.590;10.062;2022-10-26T03:22:33;11.90;99.90
14737;DHT22;7459;53.590;10.062;2022-10-26T03:24:58;11.90;99.90
14737;DHT22;7459;53.590;10.062;2022-10-26T03:27:24;12.00;99.90
14737;DHT22;7459;53.590;10.062;2022-10-26T03:29:51;12.00;99.90
14737;DHT22;7459;53.590;10.062;2022-10-26T03:32:17;12.00;99.90
14737;DHT22;7459;53.590;10.062;2022-10-26T03:34:43;12.10;99.90
14737;DHT22;7459;53.590;10.062;2022-10-26T03:37:09;12.10;99.90
14737;DHT22;7459;53.590;10.062;2022-10-26T03:39:34;12.10;99.90
14737;DHT22;7459;53.590;10.062;2022-10-26T03:42:00;12.10;99.90
14737;DHT22;7459;53.590;10.062;2022-10-26T03:44:26;12.10;99.90
14737;DHT22;7459;53.590;10.062;2022-10-26T03:46:51;12.10;99.90
14737;DHT22;7459;53.590;10.062;2022-10-26T03:49:17;12.00;99.90
14737;DHT22;7459;53.590;10.062;2022-10-26T03:51:43;11.90;99.90
14737;DHT22;7459;53.590;10.062;2022-10-26T03:54:08;11.90;99.90
14737;DHT22;7459;53.590;10.062;2022-10-26T03:56:34;11.80;99.90
14737;DHT22;7459;53.590;10.062;2022-10-26T03:59:00;11.80;99.90
14737;DHT22;7459;53.590;10.062;2022-10-26T04:01:25;11.80;99.90
14737;DHT22;7459;53.590;10.062;2022-10-26T04:03:51;11.80;99.90
14737;DHT22;7459;53.590;10.062;2022-10-26T04:06:17;11.70;99.90
14737;DHT22;7459;53.590;10.062;2022-10-26T04:08:42;11.70;99.90
14737;DHT22;7459;53.590;10.062;2022-10-26T04:11:08;11.70;99.90
14737;DHT22;7459;53.590;10.062;2022-10-26T04:13:34;11.70;99.90
14737;DHT22;7459;53.590;10.062;2022-10-26T04:15:59;11.60;99.90
14737;DHT22;7459;53.590;10.062;2022-10-26T04:18:25;11.70;99.90
14737;DHT22;7459;53.590;10.062;2022-10-26T04:20:51;11.60;99.90
14737;DHT22;7459;53.590;10.062;2022-10-26T04:23:18;11.60;99.90
14737;DHT22;7459;53.590;10.062;2022-10-26T04:25:44;11.60;99.90
14737;DHT22;7459;53.590;10.062;2022-10-26T04:28:11;11.60;99.90
14737;DHT22;7459;53.590;10.062;2022-10-26T04:30:38;11.50;99.90
14737;DHT22;7459;53.590;10.062;2022-10-26T04:33:05;11.50;99.90
14737;DHT22;7459;53.590;10.062;2022-10-26T04:35:31;11.50;99.90
14737;DHT22;7459;53.590;10.062;2022-10-26T04:38:02;11.40;99.90
14737;DHT22;7459;53.590;10.062;2022-10-26T04:40:30;11.40;99.90
14737;DHT22;7459;53.590;10.062;2022-10-26T04:42:57;11.40;99.90
14737;DHT22;7459;53.590;10.062;2022-10-26T04:45:22;11.40;99.90
14737;DHT22;7459;53.590;10.062;2022-10-26T04:48:09;11.40;99.90
14737;DHT22;7459;53.590;10.062;2022-10-26T04:50:36;11.40;99.90
14737;DHT22;7459;53.590;10.062;2022-10-26T04:53:03;11.40;99.90
14737;DHT22;7459;53.590;10.062;2022-10-26T04:55:29;11.30;99.90
14737;DHT22;7459;53.590;10.062;2022-10-26T04:57:54;11.40;99.90
14737;DHT22;7459;53.590;10.062;2022-10-26T05:00:20;11.40;99.90
14737;DHT22;7459;53.590;10.062;2022-10-26T05:03:08;11.40;99.90
14737;DHT22;7459;53.590;10.062;2022-10-26T05:05:35;11.40;99.90
14737;DHT22;7459;53.590;10.062;2022-10-26T05:08:02;11.30;99.90
14737;DHT22;7459;53.590;10.062;2022-10-26T05:10:28;11.40;99.90
14737;DHT22;7459;53.590;10.062;2022-10-26T05:12:56;11.50;99.90
14737;DHT22;7459;53.590;10.062;2022-10-26T05:15:23;11.60;99.90
14737;DHT22;7459;53.590;10.062;2022-10-26T05:17:56;11.60;99.90
14737;DHT22;7459;53.590;10.062;2022-10-26T05:20:25;11.60;99.90
14737;DHT22;7459;53.590;10.062;2022-10-26T05:22:55;11.50;99.90
14737;DHT22;7459;53.590;10.062;2022-10-26T05:25:21;11.50;99.90
14737;DHT22;7459;53.590;10.062;2022-10-26T05:27:47;11.50;99.90
14737;DHT22;7459;53.590;10.062;2022-10-26T05:30:13;11.50;99.90
14737;DHT22;7459;53.590;10.062;2022-10-26T05:32:38;11.40;99.90
14737;DHT22;7459;53.590;10.062;2022-10-26T05:35:04;11.40;99.90
14737;DHT22;7459;53.590;10.062;2022-10-26T05:37:30;11.40;99.90
14737;DHT22;7459;53.590;10.062;2022-10-26T05:39:56;11.30;99.90
14737;DHT22;7459;53.590;10.062;2022-10-26T05:42:22;11.30;99.90
14737;DHT22;7459;53.590;10.062;2022-10-26T05:44:47;11.30;99.90
14737;DHT22;7459;53.590;10.062;2022-10-26T05:47:13;11.30;99.90
14737;DHT22;7459;53.590;10.062;2022-10-26T05:49:39;11.30;99.90
14737;DHT22;7459;53.590;10.062;2022-10-26T05:52:04;11.30;99.90
14737;DHT22;7459;53.590;10.062;2022-10-26T05:54:30;11.30;99.90
14737;DHT22;7459;53.590;10.062;2022-10-26T05:56:56;11.30;99.90
14737;DHT22;7459;53.590;10.062;2022-10-26T05:59:22;11.30;99.90
14737;DHT22;7459;53.590;10.062;2022-10-26T06:02:08;11.30;99.90
14737;DHT22;7459;53.590;10.062;2022-10-26T06:04:44;11.30;99.90
14737;DHT22;7459;53.590;10.062;2022-10-26T06:07:15;11.30;99.90
14737;DHT22;7459;53.590;10.062;2022-10-26T06:09:43;11.30;99.90
14737;DHT22;7459;53.590;10.062;2022-10-26T06:12:09;11.30;99.90
14737;DHT22;7459;53.590;10.062;2022-10-26T06:14:36;11.30;99.90
14737;DHT22;7459;53.590;10.062;2022-10-26T06:17:20;11.20;99.90
14737;DHT22;7459;53.590;10.062;2022-10-26T06:23:05;11.20;99.90
14737;DHT22;7459;53.590;10.062;2022-10-26T06:25:56;11.20;99.90
14737;DHT22;7459;53.590;10.062;2022-10-26T06:31:05;11.20;99.90
14737;DHT22;7459;53.590;10.062;2022-10-26T06:33:31;11.30;99.90
14737;DHT22;7459;53.590;10.062;2022-10-26T06:36:06;11.30;99.90
14737;DHT22;7459;53.590;10.062;2022-10-26T06:38:42;11.30;99.90
14737;DHT22;7459;53.590;10.062;2022-10-26T06:41:13;11.30;99.90
14737;DHT22;7459;53.590;10.062;2022-10-26T06:43:40;11.30;99.90
14737;DHT22;7459;53.590;10.062;2022-10-26T06:49:06;11.30;99.90
14737;DHT22;7459;53.590;10.062;2022-10-26T06:51:40;11.40;99.90
14737;DHT22;7459;53.590;10.062;2022-10-26T06:57:17;11.70;99.90
14737;DHT22;7459;53.590;10.062;2022-10-26T07:02:19;11.70;99.90
14737;DHT22;7459;53.590;10.062;2022-10-26T07:04:45;11.70;99.90
14737;DHT22;7459;53.590;10.062;2022-10-26T07:07:22;11.80;99.90
14737;DHT22;7459;53.590;10.062;2022-10-26T07:09:50;11.80;99.90
14737;DHT22;7459;53.590;10.062;2022-10-26T07:12:15;11.80;99.90
14737;DHT22;7459;53.590;10.062;2022-10-26T07:14:41;11.80;99.90
14737;DHT22;7459;53.590;10.062;2022-10-26T07:17:08;11.90;99.90
14737;DHT22;7459;53.590;10.062;2022-10-26T07:19:35;11.90;99.90
14737;DHT22;7459;53.590;10.062;2022-10-26T07:22:01;11.90;99.90
14737;DHT22;7459;53.590;10.062;2022-10-26T07:24:28;11.90;99.90
14737;DHT22;7459;53.590;10.062;2022-10-26T07:26:54;11.90;99.90
14737;DHT22;7459;53.590;10.062;2022-10-26T07:29:22;11.90;99.90
14737;DHT22;7459;53.590;10.062;2022-10-26T07:31:48;11.90;99.90
14737;DHT22;7459;53.590;10.062;2022-10-26T07:34:14;12.00;99.90
14737;DHT22;7459;53.590;10.062;2022-10-26T07:36:40;12.00;99.90
14737;DHT22;7459;53.590;10.062;2022-10-26T07:39:06;12.10;99.90
14737;DHT22;7459;53.590;10.062;2022-10-26T07:41:32;12.10;99.90
14737;DHT22;7459;53.590;10.062;2022-10-26T07:43:58;12.10;99.90
14737;DHT22;7459;53.590;10.062;2022-10-26T07:46:25;12.20;99.90
14737;DHT22;7459;53.590;10.062;2022-10-26T07:48:51;12.20;99.90
14737;DHT22;7459;53.590;10.062;2022-10-26T07:51:17;12.20;99.90
14737;DHT22;7459;53.590;10.062;2022-10-26T07:53:43;12.30;99.90
14737;DHT22;7459;53.590;10.062;2022-10-26T07:56:09;12.30;99.90
14737;DHT22;7459;53.590;10.062;2022-10-26T07:58:35;12.30;99.90
14737;DHT22;7459;53.590;10.062;2022-10-26T08:01:06;12.30;99.90
14737;DHT22;7459;53.590;10.062;2022-10-26T08:03:33;12.30;99.90
14737;DHT22;7459;53.590;10.062;2022-10-26T08:05:59;12.40;99.90
14737;DHT22;7459;53.590;10.062;2022-10-26T08:08:25;12.40;99.90
14737;DHT22;7459;53.590;10.062;2022-10-26T08:10:51;12.40;99.90
14737;DHT22;7459;53.590;10.062;2022-10-26T08:13:17;12.40;99.90
14737;DHT22;7459;53.590;10.062;2022-10-26T08:15:44;12.50;99.90
14737;DHT22;7459;53.590;10.062;2022-10-26T08:18:09;12.50;99.90
14737;DHT22;7459;53.590;10.062;2022-10-26T08:20:35;12.60;99.90
14737;DHT22;7459;53.590;10.062;2022-10-26T08:23:01;12.60;99.90
14737;DHT22;7459;53.590;10.062;2022-10-26T08:25:31;12.70;99.90
14737;DHT22;7459;53.590;10.062;2022-10-26T08:28:00;12.70;99.90
14737;DHT22;7459;53.590;10.062;2022-10-26T08:30:27;12.80;99.90
14737;DHT22;7459;53.590;10.062;2022-10-26T08:33:14;12.80;99.90
14737;DHT22;7459;53.590;10.062;2022-10-26T08:35:40;12.80;99.90
14737;DHT22;7459;53.590;10.062;2022-10-26T08:38:05;12.90;99.90
14737;DHT22;7459;53.590;10.062;2022-10-26T08:40:34;12.90;99.90
14737;DHT22;7459;53.590;10.062;2022-10-26T08:45:51;13.00;99.90
14737;DHT22;7459;53.590;10.062;2022-10-26T08:48:31;13.00;99.90
14737;DHT22;7459;53.590;10.062;2022-10-26T08:51:02;13.00;99.90
14737;DHT22;7459;53.590;10.062;2022-10-26T08:54:00;13.10;99.90
14737;DHT22;7459;53.590;10.062;2022-10-26T08:56:44;13.10;99.90
14737;DHT22;7459;53.590;10.062;2022-10-26T09:02:12;13.20;99.90
14737;DHT22;7459;53.590;10.062;2022-10-26T09:04:39;13.20;99.90
14737;DHT22;7459;53.590;10.062;2022-10-26T09:07:28;13.20;99.90
14737;DHT22;7459;53.590;10.062;2022-10-26T09:10:33;13.20;99.90
14737;DHT22;7459;53.590;10.062;2022-10-26T09:13:15;13.30;99.90
14737;DHT22;7459;53.590;10.062;2022-10-26T09:16:16;13.30;99.90
14737;DHT22;7459;53.590;10.062;2022-10-26T09:18:57;13.30;99.90
14737;DHT22;7459;53.590;10.062;2022-10-26T09:21:52;13.30;99.90
14737;DHT22;7459;53.590;10.062;2022-10-26T09:24:33;13.40;99.90
14737;DHT22;7459;53.590;10.062;2022-10-26T09:27:19;13.40;99.90
14737;DHT22;7459;53.590;10.062;2022-10-26T09:29:57;13.50;99.90
14737;DHT22;7459;53.590;10.062;2022-10-26T09:32:39;13.50;99.90
14737;DHT22;7459;53.590;10.062;2022-10-26T09:35:27;13.50;99.90
14737;DHT22;7459;53.590;10.062;2022-10-26T09:38:13;13.50;99.90
14737;DHT22;7459;53.590;10.062;2022-10-26T09:40:54;13.60;99.90
14737;DHT22;7459;53.590;10.062;2022-10-26T09:43:31;13.60;99.90
14737;DHT22;7459;53.590;10.062;2022-10-26T09:45:57;13.60;99.90
14737;DHT22;7459;53.590;10.062;2022-10-26T09:48:38;13.70;99.90
14737;DHT22;7459;53.590;10.062;2022-10-26T09:51:07;13.70;99.90
14737;DHT22;7459;53.590;10.062;2022-10-26T09:53:33;13.70;99.90
14737;DHT22;7459;53.590;10.062;2022-10-26T09:56:10;13.80;99.90
14737;DHT22;7459;53.590;10.062;2022-10-26T09:58:55;13.80;99.90
14737;DHT22;7459;53.590;10.062;2022-10-26T10:04:09;13.90;99.90
14737;DHT22;7459;53.590;10.062;2022-10-26T10:06:46;14.00;99.90
14737;DHT22;7459;53.590;10.062;2022-10-26T10:09:19;14.00;99.90
14737;DHT22;7459;53.590;10.062;2022-10-26T10:11:53;14.10;99.90
14737;DHT22;7459;53.590;10.062;2022-10-26T10:14:38;14.10;99.90
14737;DHT22;7459;53.590;10.062;2022-10-26T10:17:07;14.20;99.90
14737;DHT22;7459;53.590;10.062;2022-10-26T10:19:42;14.20;99.90
14737;DHT22;7459;53.590;10.062;2022-10-26T10:22:11;14.30;99.90
14737;DHT22;7459;53.590;10.062;2022-10-26T10:27:27;14.40;99.90
14737;DHT22;7459;53.590;10.062;2022-10-26T10:29:55;14.40;99.90
14737;DHT22;7459;53.590;10.062;2022-10-26T10:32:24;14.40;99.90
14737;DHT22;7459;53.590;10.062;2022-10-26T10:34:57;14.50;99.90
14737;DHT22;7459;53.590;10.062;2022-10-26T10:37:29;14.50;99.90
14737;DHT22;7459;53.590;10.062;2022-10-26T10:40:00;14.50;99.90
14737;DHT22;7459;53.590;10.062;2022-10-26T10:42:33;14.60;99.90
14737;DHT22;7459;53.590;10.062;2022-10-26T10:45:02;14.70;99.90
14737;DHT22;7459;53.590;10.062;2022-10-26T10:47:31;14.70;99.90
14737;DHT22;7459;53.590;10.062;2022-10-26T10:50:21;14.70;99.90
14737;DHT22;7459;53.590;10.062;2022-10-26T10:52:46;14.80;99.90
14737;DHT22;7459;53.590;10.062;2022-10-26T10:57:56;14.80;99.90
14737;DHT22;7459;53.590;10.062;2022-10-26T11:00:26;14.90;99.90
14737;DHT22;7459;53.590;10.062;2022-10-26T11:06:14;15.00;99.90
14737;DHT22;7459;53.590;10.062;2022-10-26T11:11:34;15.00;99.90
14737;DHT22;7459;53.590;10.062;2022-10-26T11:14:16;15.10;99.90
14737;DHT22;7459;53.590;10.062;2022-10-26T11:17:01;15.10;99.90
14737;DHT22;7459;53.590;10.062;2022-10-26T11:19:36;15.10;99.90
14737;DHT22;7459;53.590;10.062;2022-10-26T11:22:20;15.20;99.90
14737;DHT22;7459;53.590;10.062;2022-10-26T11:25:12;15.30;99.90
14737;DHT22;7459;53.590;10.062;2022-10-26T11:27:48;15.30;99.90
14737;DHT22;7459;53.590;10.062;2022-10-26T11:30:23;15.40;99.90
14737;DHT22;7459;53.590;10.062;2022-10-26T11:38:18;15.50;99.90
14737;DHT22;7459;53.590;10.062;2022-10-26T11:41:09;15.50;99.90
14737;DHT22;7459;53.590;10.062;2022-10-26T11:43:45;15.50;99.90
14737;DHT22;7459;53.590;10.062;2022-10-26T11:46:31;15.60;99.90
14737;DHT22;7459;53.590;10.062;2022-10-26T11:49:19;15.60;99.90
14737;DHT22;7459;53.590;10.062;2022-10-26T11:52:09;15.60;99.90
14737;DHT22;7459;53.590;10.062;2022-10-26T11:54:47;15.60;99.90
14737;DHT22;7459;53.590;10.062;2022-10-26T11:57:18;15.70;99.90
14737;DHT22;7459;53.590;10.062;2022-10-26T11:59:53;15.70;99.90
14737;DHT22;7459;53.590;10.062;2022-10-26T12:02:22;15.80;99.90
14737;DHT22;7459;53.590;10.062;2022-10-26T12:07:38;15.80;99.90
14737;DHT22;7459;53.590;10.062;2022-10-26T12:10:18;15.80;99.90
14737;DHT22;7459;53.590;10.062;2022-10-26T12:12:56;15.80;99.90
14737;DHT22;7459;53.590;10.062;2022-10-26T12:15:40;15.70;99.90
14737;DHT22;7459;53.590;10.062;2022-10-26T12:18:24;15.70;99.90
14737;DHT22;7459;53.590;10.062;2022-10-26T12:21:07;15.70;99.90
14737;DHT22;7459;53.590;10.062;2022-10-26T12:23:51;15.70;99.90
14737;DHT22;7459;53.590;10.062;2022-10-26T12:29:12;15.70;99.90
14737;DHT22;7459;53.590;10.062;2022-10-26T12:34:10;15.70;99.90
14737;DHT22;7459;53.590;10.062;2022-10-26T12:47:04;15.90;99.90
14737;DHT22;7459;53.590;10.062;2022-10-26T12:49:59;15.90;99.90
14737;DHT22;7459;53.590;10.062;2022-10-26T13:00:16;15.90;99.90
14737;DHT22;7459;53.590;10.062;2022-10-26T13:08:44;16.00;99.90
14737;DHT22;7459;53.590;10.062;2022-10-26T13:13:55;16.10;99.90
14737;DHT22;7459;53.590;10.062;2022-10-26T13:16:25;16.10;99.90
14737;DHT22;7459;53.590;10.062;2022-10-26T13:18:51;16.10;99.90
14737;DHT22;7459;53.590;10.062;2022-10-26T13:21:19;16.10;99.90
14737;DHT22;7459;53.590;10.062;2022-10-26T13:23:46;16.20;99.90
14737;DHT22;7459;53.590;10.062;2022-10-26T13:26:23;16.20;99.90
14737;DHT22;7459;53.590;10.062;2022-10-26T13:28:58;16.20;99.90
14737;DHT22;7459;53.590;10.062;2022-10-26T13:34:14;16.30;99.90
14737;DHT22;7459;53.590;10.062;2022-10-26T13:39:24;16.30;99.90
14737;DHT22;7459;53.590;10.062;2022-10-26T13:41:53;16.40;99.90
14737;DHT22;7459;53.590;10.062;2022-10-26T13:47:05;16.40;99.90
14737;DHT22;7459;53.590;10.062;2022-10-26T13:49:41;16.30;99.90
14737;DHT22;7459;53.590;10.062;2022-10-26T13:52:33;16.30;99.90
14737;DHT22;7459;53.590;10.062;2022-10-26T13:55:19;16.40;99.90
14737;DHT22;7459;53.590;10.062;2022-10-26T14:01:12;16.40;99.90
14737;DHT22;7459;53.590;10.062;2022-10-26T14:03:41;16.30;99.90
14737;DHT22;7459;53.590;10.062;2022-10-26T14:08:56;16.30;99.90
14737;DHT22;7459;53.590;10.062;2022-10-26T14:13:59;16.20;99.90
14737;DHT22;7459;53.590;10.062;2022-10-26T14:16:29;16.20;99.90
14737;DHT22;7459;53.590;10.062;2022-10-26T14:18:56;16.20;99.90
14737;DHT22;7459;53.590;10.062;2022-10-26T14:21:22;16.10;99.90
14737;DHT22;7459;53.590;10.062;2022-10-26T14:23:58;16.10;99.90
14737;DHT22;7459;53.590;10.062;2022-10-26T14:26:39;16.20;99.90
14737;DHT22;7459;53.590;10.062;2022-10-26T14:29:17;16.20;99.90
14737;DHT22;7459;53.590;10.062;2022-10-26T14:31:45;16.30;99.90
14737;DHT22;7459;53.590;10.062;2022-10-26T14:34:12;16.40;99.90
14737;DHT22;7459;53.590;10.062;2022-10-26T14:39:44;16.50;99.90
14737;DHT22;7459;53.590;10.062;2022-10-26T14:42:32;16.60;99.90
14737;DHT22;7459;53.590;10.062;2022-10-26T14:45:01;16.50;99.90
14737;DHT22;7459;53.590;10.062;2022-10-26T14:47:29;16.50;99.90
14737;DHT22;7459;53.590;10.062;2022-10-26T14:49:57;16.60;99.90
14737;DHT22;7459;53.590;10.062;2022-10-26T14:52:28;16.50;99.90
14737;DHT22;7459;53.590;10.062;2022-10-26T14:55:01;16.50;99.90
14737;DHT22;7459;53.590;10.062;2022-10-26T14:57:42;16.50;99.90
14737;DHT22;7459;53.590;10.062;2022-10-26T15:02:44;16.30;99.90
14737;DHT22;7459;53.590;10.062;2022-10-26T15:07:54;16.30;99.90
14737;DHT22;7459;53.590;10.062;2022-10-26T15:13:10;16.20;99.90
14737;DHT22;7459;53.590;10.062;2022-10-26T15:15:46;16.20;99.90
14737;DHT22;7459;53.590;10.062;2022-10-26T15:18:27;16.20;99.90
14737;DHT22;7459;53.590;10.062;2022-10-26T15:20:54;16.10;99.90
14737;DHT22;7459;53.590;10.062;2022-10-26T15:23:22;16.10;99.90
14737;DHT22;7459;53.590;10.062;2022-10-26T15:26:00;16.00;99.90
14737;DHT22;7459;53.590;10.062;2022-10-26T15:28:37;16.10;99.90
14737;DHT22;7459;53.590;10.062;2022-10-26T15:31:27;16.10;99.90
14737;DHT22;7459;53.590;10.062;2022-10-26T15:36:30;16.00;99.90
14737;DHT22;7459;53.590;10.062;2022-10-26T15:38:58;16.00;99.90
14737;DHT22;7459;53.590;10.062;2022-10-26T15:41:34;16.00;99.90
14737;DHT22;7459;53.590;10.062;2022-10-26T15:44:06;16.00;99.90
14737;DHT22;7459;53.590;10.062;2022-10-26T15:46:38;15.90;99.90
14737;DHT22;7459;53.590;10.062;2022-10-26T15:49:06;15.90;99.90
14737;DHT22;7459;53.590;10.062;2022-10-26T15:51:33;15.80;99.90
14737;DHT22;7459;53.590;10.062;2022-10-26T15:54:02;15.80;99.90
14737;DHT22;7459;53.590;10.062;2022-10-26T15:56:29;15.70;99.90
14737;DHT22;7459;53.590;10.062;2022-10-26T15:58:56;15.70;99.90
14737;DHT22;7459;53.590;10.062;2022-10-26T16:01:24;15.70;99.90
14737;DHT22;7459;53.590;10.062;2022-10-26T16:03:51;15.70;99.90
14737;DHT22;7459;53.590;10.062;2022-10-26T16:06:35;15.70;99.90
14737;DHT22;7459;53.590;10.062;2022-10-26T16:09:03;15.70;99.90
14737;DHT22;7459;53.590;10.062;2022-10-26T16:11:30;15.70;99.90
14737;DHT22;7459;53.590;10.062;2022-10-26T16:13:56;15.70;99.90
14737;DHT22;7459;53.590;10.062;2022-10-26T16:16:22;15.60;99.90
14737;DHT22;7459;53.590;10.062;2022-10-26T16:18:51;15.60;99.90
14737;DHT22;7459;53.590;10.062;2022-10-26T16:21:19;15.60;99.90
14737;DHT22;7459;53.590;10.062;2022-10-26T16:23:49;15.60;99.90
14737;DHT22;7459;53.590;10.062;2022-10-26T16:26:17;15.50;99.90
14737;DHT22;7459;53.590;10.062;2022-10-26T16:28:44;15.50;99.90
14737;DHT22;7459;53.590;10.062;2022-10-26T16:31:12;15.60;99.90
14737;DHT22;7459;53.590;10.062;2022-10-26T16:33:38;15.50;99.90
14737;DHT22;7459;53.590;10.062;2022-10-26T16:36:05;15.50;99.90
14737;DHT22;7459;53.590;10.062;2022-10-26T16:38:32;15.50;99.90
14737;DHT22;7459;53.590;10.062;2022-10-26T16:41:03;15.50;99.90
14737;DHT22;7459;53.590;10.062;2022-10-26T16:43:35;15.50;99.90
14737;DHT22;7459;53.590;10.062;2022-10-26T16:46:28;15.50;99.90
14737;DHT22;7459;53.590;10.062;2022-10-26T16:48:54;15.50;99.90
14737;DHT22;7459;53.590;10.062;2022-10-26T16:51:25;15.50;99.90
14737;DHT22;7459;53.590;10.062;2022-10-26T16:53:53;15.40;99.90
14737;DHT22;7459;53.590;10.062;2022-10-26T16:56:28;15.40;99.90
14737;DHT22;7459;53.590;10.062;2022-10-26T16:58:54;15.40;99.90
14737;DHT22;7459;53.590;10.062;2022-10-26T17:01:20;15.40;99.90
14737;DHT22;7459;53.590;10.062;2022-10-26T17:03:48;15.40;99.90
14737;DHT22;7459;53.590;10.062;2022-10-26T17:06:15;15.40;99.90
14737;DHT22;7459;53.590;10.062;2022-10-26T17:08:41;15.40;99.90
14737;DHT22;7459;53.590;10.062;2022-10-26T17:11:18;15.30;99.90
14737;DHT22;7459;53.590;10.062;2022-10-26T17:13:45;15.30;99.90
14737;DHT22;7459;53.590;10.062;2022-10-26T17:16:17;15.30;99.90
14737;DHT22;7459;53.590;10.062;2022-10-26T17:18:44;15.30;99.90
14737;DHT22;7459;53.590;10.062;2022-10-26T17:21:12;15.30;99.90
14737;DHT22;7459;53.590;10.062;2022-10-26T17:23:39;15.30;99.90
14737;DHT22;7459;53.590;10.062;2022-10-26T17:26:07;15.30;99.90
14737;DHT22;7459;53.590;10.062;2022-10-26T17:28:34;15.30;99.90
14737;DHT22;7459;53.590;10.062;2022-10-26T17:31:11;15.30;99.90
14737;DHT22;7459;53.590;10.062;2022-10-26T17:33:38;15.20;99.90
14737;DHT22;7459;53.590;10.062;2022-10-26T17:36:07;15.20;99.90
14737;DHT22;7459;53.590;10.062;2022-10-26T17:38:36;15.20;99.90
14737;DHT22;7459;53.590;10.062;2022-10-26T17:41:11;15.20;99.90
14737;DHT22;7459;53.590;10.062;2022-10-26T17:43:39;15.20;99.90
14737;DHT22;7459;53.590;10.062;2022-10-26T17:46:17;15.20;99.90
14737;DHT22;7459;53.590;10.062;2022-10-26T17:48:44;15.20;99.90
14737;DHT22;7459;53.590;10.062;2022-10-26T17:51:16;15.20;99.90
14737;DHT22;7459;53.590;10.062;2022-10-26T17:53:45;15.20;99.90
14737;DHT22;7459;53.590;10.062;2022-10-26T17:56:26;15.10;99.90
14737;DHT22;7459;53.590;10.062;2022-10-26T17:58:58;15.10;99.90
14737;DHT22;7459;53.590;10.062;2022-10-26T18:01:25;15.10;99.90
14737;DHT22;7459;53.590;10.062;2022-10-26T18:03:52;15.10;99.90